sensor_id;sensor_type;location;lat;lon;timestamp;temperature;humidity
20759;DHT22;10539;53.686;9.158;2022-11-20T00:00:56;4.10;99.90
20759;DHT22;10539;53.686;9.158;2022-11-20T00:03:22;4.00;99.90
20759;DHT22;10539;53.686;9.158;2022-11-20T00:05:49;4.00;99.90
20759;DHT22;10539;53.686;9.158;2022-11-20T00:08:14;4.00;99.90
20759;DHT22;10539;53.686;9.158;2022-11-20T00:10:40;4.00;99.90
20759;DHT22;10539;53.686;9.158;2022-11-20T00:13:07;4.00;99.90
20759;DHT22;10539;53.686;9.158;2022-11-20T00:15:33;4.10;99.90
20759;DHT22;10539;53.686;9.158;2022-11-20T00:17:59;4.10;99.90
20759;DHT22;10539;53.686;9.158;2022-11-20T00:20:24;4.10;99.90
20759;DHT22;10539;53.686;9.158;2022-11-20T00:22:50;4.10;99.90
20759;DHT22;10539;53.686;9.158;2022-11-20T00:25:17;4.10;99.90
20759;DHT22;10539;53.686;9.158;2022-11-20T00:27:43;4.10;99.90
20759;DHT22;10539;53.686;9.158;2022-11-20T00:30:09;4.20;99.90
20759;DHT22;10539;53.686;9.158;2022-11-20T00:32:35;4.10;99.90
20759;DHT22;10539;53.686;9.158;2022-11-20T00:35:00;4.10;99.90
20759;DHT22;10539;53.686;9.158;2022-11-20T00:37:26;4.10;99.90
20759;DHT22;10539;53.686;9.158;2022-11-20T00:39:52;4.00;99.90
20759;DHT22;10539;53.686;9.158;2022-11-20T00:42:18;4.00;99.90
20759;DHT22;10539;53.686;9.158;2022-11-20T00:44:44;4.00;99.90
20759;DHT22;10539;53.686;9.158;2022-11-20T00:47:10;4.00;99.90
20759;DHT22;10539;53.686;9.158;2022-11-20T00:49:35;3.90;99.90
20759;DHT22;10539;53.686;9.158;2022-11-20T00:52:01;3.90;99.90
20759;DHT22;10539;53.686;9.158;2022-11-20T00:54:27;3.90;99.90
20759;DHT22;10539;53.686;9.158;2022-11-20T00:56:53;3.90;99.90
20759;DHT22;10539;53.686;9.158;2022-11-20T00:59:19;3.90;99.90
20759;DHT22;10539;53.686;9.158;2022-11-20T01:01:45;3.90;99.90
20759;DHT22;10539;53.686;9.158;2022-11-20T01:04:10;3.90;99.90
20759;DHT22;10539;53.686;9.158;2022-11-20T01:06:37;3.90;99.90
20759;DHT22;10539;53.686;9.158;2022-11-20T01:09:06;3.90;99.90
20759;DHT22;10539;53.686;9.158;2022-11-20T01:11:35;3.90;99.90
20759;DHT22;10539;53.686;9.158;2022-11-20T01:14:05;3.90;99.90
20759;DHT22;10539;53.686;9.158;2022-11-20T01:16:36;3.90;99.90
20759;DHT22;10539;53.686;9.158;2022-11-20T01:19:04;3.80;99.90
20759;DHT22;10539;53.686;9.158;2022-11-20T01:21:32;3.80;99.90
20759;DHT22;10539;53.686;9.158;2022-11-20T01:23:59;3.80;99.90
20759;DHT22;10539;53.686;9.158;2022-11-20T01:26:29;3.80;99.90
20759;DHT22;10539;53.686;9.158;2022-11-20T01:28:56;3.80;99.90
20759;DHT22;10539;53.686;9.158;2022-11-20T01:31:30;3.70;99.90
20759;DHT22;10539;53.686;9.158;2022-11-20T01:33:58;3.70;99.90
20759;DHT22;10539;53.686;9.158;2022-11-20T01:36:27;3.60;99.90
20759;DHT22;10539;53.686;9.158;2022-11-20T01:38:55;3.60;99.90
20759;DHT22;10539;53.686;9.158;2022-11-20T01:41:21;3.60;99.90
20759;DHT22;10539;53.686;9.158;2022-11-20T01:44:06;3.60;99.90
20759;DHT22;10539;53.686;9.158;2022-11-20T01:46:35;3.60;99.90
20759;DHT22;10539;53.686;9.158;2022-11-20T01:52:03;3.70;99.90
20759;DHT22;10539;53.686;9.158;2022-11-20T01:54:36;3.70;99.90
20759;DHT22;10539;53.686;9.158;2022-11-20T01:57:04;3.70;99.90
20759;DHT22;10539;53.686;9.158;2022-11-20T01:59:31;3.70;99.90
20759;DHT22;10539;53.686;9.158;2022-11-20T02:01:57;3.80;99.90
20759;DHT22;10539;53.686;9.158;2022-11-20T02:04:23;3.80;99.90
20759;DHT22;10539;53.686;9.158;2022-11-20T02:06:59;3.70;99.90
20759;DHT22;10539;53.686;9.158;2022-11-20T02:09:25;3.70;99.90
20759;DHT22;10539;53.686;9.158;2022-11-20T02:11:51;3.70;99.90
20759;DHT22;10539;53.686;9.158;2022-11-20T02:14:17;3.70;99.90
20759;DHT22;10539;53.686;9.158;2022-11-20T02:16:48;3.70;99.90
20759;DHT22;10539;53.686;9.158;2022-11-20T02:19:23;3.70;99.90
20759;DHT22;10539;53.686;9.158;2022-11-20T02:22:12;3.70;99.90
20759;DHT22;10539;53.686;9.158;2022-11-20T02:24:41;3.70;99.90
20759;DHT22;10539;53.686;9.158;2022-11-20T02:27:10;3.60;99.90
20759;DHT22;10539;53.686;9.158;2022-11-20T02:34:44;3.60;99.90
20759;DHT22;10539;53.686;9.158;2022-11-20T02:37:10;3.50;99.90
20759;DHT22;10539;53.686;9.158;2022-11-20T02:39:36;3.50;99.90
20759;DHT22;10539;53.686;9.158;2022-11-20T02:42:02;3.50;99.90
20759;DHT22;10539;53.686;9.158;2022-11-20T02:44:27;3.50;99.90
20759;DHT22;10539;53.686;9.158;2022-11-20T02:46:56;3.50;99.90
20759;DHT22;10539;53.686;9.158;2022-11-20T02:49:22;3.50;99.90
20759;DHT22;10539;53.686;9.158;2022-11-20T02:51:49;3.50;99.90
20759;DHT22;10539;53.686;9.158;2022-11-20T02:54:15;3.60;99.90
20759;DHT22;10539;53.686;9.158;2022-11-20T02:56:40;3.60;99.90
20759;DHT22;10539;53.686;9.158;2022-11-20T02:59:07;3.50;99.90
20759;DHT22;10539;53.686;9.158;2022-11-20T03:01:32;3.50;99.90
20759;DHT22;10539;53.686;9.158;2022-11-20T03:03:58;3.50;99.90
20759;DHT22;10539;53.686;9.158;2022-11-20T03:06:24;3.60;99.90
20759;DHT22;10539;53.686;9.158;2022-11-20T03:08:50;3.60;99.90
20759;DHT22;10539;53.686;9.158;2022-11-20T03:11:15;3.60;99.90
20759;DHT22;10539;53.686;9.158;2022-11-20T03:13:42;3.70;99.90
20759;DHT22;10539;53.686;9.158;2022-11-20T03:16:13;3.70;99.90
20759;DHT22;10539;53.686;9.158;2022-11-20T03:18:40;3.60;99.90
20759;DHT22;10539;53.686;9.158;2022-11-20T03:21:07;3.60;99.90
20759;DHT22;10539;53.686;9.158;2022-11-20T03:23:33;3.60;99.90
20759;DHT22;10539;53.686;9.158;2022-11-20T03:26:15;3.60;99.90
20759;DHT22;10539;53.686;9.158;2022-11-20T03:28:46;3.60;99.90
20759;DHT22;10539;53.686;9.158;2022-11-20T03:31:13;3.60;99.90
20759;DHT22;10539;53.686;9.158;2022-11-20T03:33:40;3.60;99.90
20759;DHT22;10539;53.686;9.158;2022-11-20T03:36:09;3.70;99.90
20759;DHT22;10539;53.686;9.158;2022-11-20T03:38:34;3.60;99.90
20759;DHT22;10539;53.686;9.158;2022-11-20T03:41:15;3.60;99.90
20759;DHT22;10539;53.686;9.158;2022-11-20T03:43:41;3.60;99.90
20759;DHT22;10539;53.686;9.158;2022-11-20T03:46:07;3.60;99.90
20759;DHT22;10539;53.686;9.158;2022-11-20T03:48:33;3.60;99.90
20759;DHT22;10539;53.686;9.158;2022-11-20T03:51:11;3.60;99.90
20759;DHT22;10539;53.686;9.158;2022-11-20T03:53:38;3.60;99.90
20759;DHT22;10539;53.686;9.158;2022-11-20T03:56:04;3.70;99.90
20759;DHT22;10539;53.686;9.158;2022-11-20T03:58:30;3.70;99.90
20759;DHT22;10539;53.686;9.158;2022-11-20T04:00:56;3.70;99.90
20759;DHT22;10539;53.686;9.158;2022-11-20T04:03:22;3.60;99.90
20759;DHT22;10539;53.686;9.158;2022-11-20T04:05:48;3.60;99.90
20759;DHT22;10539;53.686;9.158;2022-11-20T04:08:13;3.60;99.90
20759;DHT22;10539;53.686;9.158;2022-11-20T04:10:39;3.50;99.90
20759;DHT22;10539;53.686;9.158;2022-11-20T04:13:05;3.50;99.90
20759;DHT22;10539;53.686;9.158;2022-11-20T04:15:30;3.50;99.90
20759;DHT22;10539;53.686;9.158;2022-11-20T04:17:56;3.60;99.90
20759;DHT22;10539;53.686;9.158;2022-11-20T04:20:22;3.60;99.90
20759;DHT22;10539;53.686;9.158;2022-11-20T04:22:48;3.60;99.90
20759;DHT22;10539;53.686;9.158;2022-11-20T04:25:13;3.60;99.90
20759;DHT22;10539;53.686;9.158;2022-11-20T04:27:39;3.60;99.90
20759;DHT22;10539;53.686;9.158;2022-11-20T04:30:05;3.50;99.90
20759;DHT22;10539;53.686;9.158;2022-11-20T04:32:31;3.50;99.90
20759;DHT22;10539;53.686;9.158;2022-11-20T04:34:57;3.50;99.90
20759;DHT22;10539;53.686;9.158;2022-11-20T04:37:23;3.50;99.90
20759;DHT22;10539;53.686;9.158;2022-11-20T04:39:48;3.40;99.90
20759;DHT22;10539;53.686;9.158;2022-11-20T04:42:16;3.40;99.90
20759;DHT22;10539;53.686;9.158;2022-11-20T04:44:54;3.40;99.90
20759;DHT22;10539;53.686;9.158;2022-11-20T04:47:21;3.40;99.90
20759;DHT22;10539;53.686;9.158;2022-11-20T04:49:47;3.40;99.90
20759;DHT22;10539;53.686;9.158;2022-11-20T04:52:17;3.50;99.90
20759;DHT22;10539;53.686;9.158;2022-11-20T04:54:43;3.50;99.90
20759;DHT22;10539;53.686;9.158;2022-11-20T04:57:08;3.50;99.90
20759;DHT22;10539;53.686;9.158;2022-11-20T04:59:34;3.50;99.90
20759;DHT22;10539;53.686;9.158;2022-11-20T05:02:00;3.50;99.90
20759;DHT22;10539;53.686;9.158;2022-11-20T05:04:25;3.50;99.90
20759;DHT22;10539;53.686;9.158;2022-11-20T05:06:51;3.50;99.90
20759;DHT22;10539;53.686;9.158;2022-11-20T05:09:17;3.50;99.90
20759;DHT22;10539;53.686;9.158;2022-11-20T05:11:43;3.50;99.90
20759;DHT22;10539;53.686;9.158;2022-11-20T05:14:08;3.50;99.90
20759;DHT22;10539;53.686;9.158;2022-11-20T05:16:34;3.50;99.90
20759;DHT22;10539;53.686;9.158;2022-11-20T05:19:01;3.50;99.90
20759;DHT22;10539;53.686;9.158;2022-11-20T05:21:30;3.50;99.90
20759;DHT22;10539;53.686;9.158;2022-11-20T05:23:57;3.60;99.90
20759;DHT22;10539;53.686;9.158;2022-11-20T05:26:23;3.60;99.90
20759;DHT22;10539;53.686;9.158;2022-11-20T05:28:49;3.50;99.90
20759;DHT22;10539;53.686;9.158;2022-11-20T05:31:18;3.60;99.90
20759;DHT22;10539;53.686;9.158;2022-11-20T05:33:45;3.60;99.90
20759;DHT22;10539;53.686;9.158;2022-11-20T05:36:13;3.60;99.90
20759;DHT22;10539;53.686;9.158;2022-11-20T05:38:39;3.60;99.90
20759;DHT22;10539;53.686;9.158;2022-11-20T05:41:08;3.60;99.90
20759;DHT22;10539;53.686;9.158;2022-11-20T05:43:35;3.60;99.90
20759;DHT22;10539;53.686;9.158;2022-11-20T05:46:01;3.60;99.90
20759;DHT22;10539;53.686;9.158;2022-11-20T05:48:28;3.50;99.90
20759;DHT22;10539;53.686;9.158;2022-11-20T05:50:59;3.50;99.90
20759;DHT22;10539;53.686;9.158;2022-11-20T05:53:25;3.50;99.90
20759;DHT22;10539;53.686;9.158;2022-11-20T05:56:01;3.50;99.90
20759;DHT22;10539;53.686;9.158;2022-11-20T05:58:28;3.50;99.90
20759;DHT22;10539;53.686;9.158;2022-11-20T06:00:54;3.40;99.90
20759;DHT22;10539;53.686;9.158;2022-11-20T06:03:28;3.40;99.90
20759;DHT22;10539;53.686;9.158;2022-11-20T06:05:55;3.40;99.90
20759;DHT22;10539;53.686;9.158;2022-11-20T06:08:22;3.40;99.90
20759;DHT22;10539;53.686;9.158;2022-11-20T06:10:48;3.40;99.90
20759;DHT22;10539;53.686;9.158;2022-11-20T06:13:14;3.40;99.90
20759;DHT22;10539;53.686;9.158;2022-11-20T06:15:39;3.40;99.90
20759;DHT22;10539;53.686;9.158;2022-11-20T06:18:05;3.40;99.90
20759;DHT22;10539;53.686;9.158;2022-11-20T06:20:31;3.30;99.90
20759;DHT22;10539;53.686;9.158;2022-11-20T06:22:56;3.40;99.90
20759;DHT22;10539;53.686;9.158;2022-11-20T06:25:23;3.30;99.90
20759;DHT22;10539;53.686;9.158;2022-11-20T06:27:49;3.30;99.90
20759;DHT22;10539;53.686;9.158;2022-11-20T06:30:15;3.30;99.90
20759;DHT22;10539;53.686;9.158;2022-11-20T06:32:41;3.30;99.90
20759;DHT22;10539;53.686;9.158;2022-11-20T06:35:07;3.40;99.90
20759;DHT22;10539;53.686;9.158;2022-11-20T06:37:33;3.40;99.90
20759;DHT22;10539;53.686;9.158;2022-11-20T06:39:58;3.40;99.90
20759;DHT22;10539;53.686;9.158;2022-11-20T06:42:24;3.40;99.90
20759;DHT22;10539;53.686;9.158;2022-11-20T06:44:50;3.50;99.90
20759;DHT22;10539;53.686;9.158;2022-11-20T06:47:16;3.50;99.90
20759;DHT22;10539;53.686;9.158;2022-11-20T06:49:41;3.50;99.90
20759;DHT22;10539;53.686;9.158;2022-11-20T06:52:07;3.40;99.90
20759;DHT22;10539;53.686;9.158;2022-11-20T06:54:33;3.40;99.90
20759;DHT22;10539;53.686;9.158;2022-11-20T06:56:58;3.40;99.90
20759;DHT22;10539;53.686;9.158;2022-11-20T06:59:24;3.40;99.90
20759;DHT22;10539;53.686;9.158;2022-11-20T07:01:49;3.40;99.90
20759;DHT22;10539;53.686;9.158;2022-11-20T07:04:15;3.40;99.90
20759;DHT22;10539;53.686;9.158;2022-11-20T07:06:41;3.40;99.90
20759;DHT22;10539;53.686;9.158;2022-11-20T07:09:07;3.40;99.90
20759;DHT22;10539;53.686;9.158;2022-11-20T07:11:32;3.50;99.90
20759;DHT22;10539;53.686;9.158;2022-11-20T07:13:58;3.50;99.90
20759;DHT22;10539;53.686;9.158;2022-11-20T07:16:23;3.40;99.90
20759;DHT22;10539;53.686;9.158;2022-11-20T07:18:49;3.50;99.90
20759;DHT22;10539;53.686;9.158;2022-11-20T07:21:15;3.50;99.90
20759;DHT22;10539;53.686;9.158;2022-11-20T07:23:41;3.50;99.90
20759;DHT22;10539;53.686;9.158;2022-11-20T07:26:09;3.40;99.90
20759;DHT22;10539;53.686;9.158;2022-11-20T07:28:36;3.40;99.90
20759;DHT22;10539;53.686;9.158;2022-11-20T07:31:03;3.40;99.90
20759;DHT22;10539;53.686;9.158;2022-11-20T07:33:30;3.40;99.90
20759;DHT22;10539;53.686;9.158;2022-11-20T07:35:57;3.30;99.90
20759;DHT22;10539;53.686;9.158;2022-11-20T07:38:23;3.30;99.90
20759;DHT22;10539;53.686;9.158;2022-11-20T07:40:53;3.30;99.90
20759;DHT22;10539;53.686;9.158;2022-11-20T07:43:19;3.30;99.90
20759;DHT22;10539;53.686;9.158;2022-11-20T07:45:45;3.30;99.90
20759;DHT22;10539;53.686;9.158;2022-11-20T07:48:10;3.40;99.90
20759;DHT22;10539;53.686;9.158;2022-11-20T07:50:40;3.40;99.90
20759;DHT22;10539;53.686;9.158;2022-11-20T07:53:06;3.40;99.90
20759;DHT22;10539;53.686;9.158;2022-11-20T07:55:32;3.40;99.90
20759;DHT22;10539;53.686;9.158;2022-11-20T07:57:58;3.50;99.90
20759;DHT22;10539;53.686;9.158;2022-11-20T08:00:26;3.60;99.90
20759;DHT22;10539;53.686;9.158;2022-11-20T08:02:52;3.60;99.90
20759;DHT22;10539;53.686;9.158;2022-11-20T08:05:18;3.70;99.90
20759;DHT22;10539;53.686;9.158;2022-11-20T08:07:44;3.70;99.90
20759;DHT22;10539;53.686;9.158;2022-11-20T08:10:12;3.80;99.90
20759;DHT22;10539;53.686;9.158;2022-11-20T08:12:46;3.80;99.90
20759;DHT22;10539;53.686;9.158;2022-11-20T08:15:31;3.70;99.90
20759;DHT22;10539;53.686;9.158;2022-11-20T08:18:05;3.70;99.90
20759;DHT22;10539;53.686;9.158;2022-11-20T08:20:31;3.70;99.90
20759;DHT22;10539;53.686;9.158;2022-11-20T08:23:05;3.70;99.90
20759;DHT22;10539;53.686;9.158;2022-11-20T08:25:32;3.70;99.90
20759;DHT22;10539;53.686;9.158;2022-11-20T08:28:03;3.70;99.90
20759;DHT22;10539;53.686;9.158;2022-11-20T08:30:30;3.70;99.90
20759;DHT22;10539;53.686;9.158;2022-11-20T08:33:07;3.70;99.90
20759;DHT22;10539;53.686;9.158;2022-11-20T08:35:38;3.70;99.90
20759;DHT22;10539;53.686;9.158;2022-11-20T08:38:05;3.70;99.90
20759;DHT22;10539;53.686;9.158;2022-11-20T08:40:31;3.70;99.90
20759;DHT22;10539;53.686;9.158;2022-11-20T08:42:57;3.70;99.90
20759;DHT22;10539;53.686;9.158;2022-11-20T08:45:23;3.80;99.90
20759;DHT22;10539;53.686;9.158;2022-11-20T08:47:49;3.90;99.90
20759;DHT22;10539;53.686;9.158;2022-11-20T08:50:16;3.90;99.90
20759;DHT22;10539;53.686;9.158;2022-11-20T08:52:43;4.00;99.90
20759;DHT22;10539;53.686;9.158;2022-11-20T08:55:09;4.00;99.90
20759;DHT22;10539;53.686;9.158;2022-11-20T08:57:36;3.90;99.90
20759;DHT22;10539;53.686;9.158;2022-11-20T09:00:04;4.00;99.90
20759;DHT22;10539;53.686;9.158;2022-11-20T09:02:30;4.00;99.90
20759;DHT22;10539;53.686;9.158;2022-11-20T09:04:58;4.10;99.90
20759;DHT22;10539;53.686;9.158;2022-11-20T09:07:24;4.20;99.90
20759;DHT22;10539;53.686;9.158;2022-11-20T09:09:49;4.20;99.90
20759;DHT22;10539;53.686;9.158;2022-11-20T09:12:15;4.10;99.90
20759;DHT22;10539;53.686;9.158;2022-11-20T09:14:41;4.10;99.90
20759;DHT22;10539;53.686;9.158;2022-11-20T09:17:07;4.10;99.90
20759;DHT22;10539;53.686;9.158;2022-11-20T09:19:33;4.10;99.90
20759;DHT22;10539;53.686;9.158;2022-11-20T09:21:59;4.10;99.90
20759;DHT22;10539;53.686;9.158;2022-11-20T09:24:26;4.00;99.90
20759;DHT22;10539;53.686;9.158;2022-11-20T09:26:52;4.10;99.90
20759;DHT22;10539;53.686;9.158;2022-11-20T09:29:17;4.10;99.90
20759;DHT22;10539;53.686;9.158;2022-11-20T09:31:44;4.00;99.90
20759;DHT22;10539;53.686;9.158;2022-11-20T09:34:09;4.10;99.90
20759;DHT22;10539;53.686;9.158;2022-11-20T09:36:35;4.20;99.90
20759;DHT22;10539;53.686;9.158;2022-11-20T09:39:01;4.30;99.90
20759;DHT22;10539;53.686;9.158;2022-11-20T09:47:08;4.70;99.90
20759;DHT22;10539;53.686;9.158;2022-11-20T09:49:53;4.90;99.90
20759;DHT22;10539;53.686;9.158;2022-11-20T09:54:52;4.90;99.90
20759;DHT22;10539;53.686;9.158;2022-11-20T09:57:25;4.90;99.90
20759;DHT22;10539;53.686;9.158;2022-11-20T10:00:03;4.80;99.90
20759;DHT22;10539;53.686;9.158;2022-11-20T10:02:55;4.70;99.90
20759;DHT22;10539;53.686;9.158;2022-11-20T10:05:31;4.60;99.90
20759;DHT22;10539;53.686;9.158;2022-11-20T10:08:10;4.60;99.90
20759;DHT22;10539;53.686;9.158;2022-11-20T10:10:45;4.60;99.90
20759;DHT22;10539;53.686;9.158;2022-11-20T10:13:51;4.60;99.90
20759;DHT22;10539;53.686;9.158;2022-11-20T10:16:41;4.60;99.90
20759;DHT22;10539;53.686;9.158;2022-11-20T10:22:09;4.80;99.90
20759;DHT22;10539;53.686;9.158;2022-11-20T10:25:04;4.90;99.90
20759;DHT22;10539;53.686;9.158;2022-11-20T10:27:36;4.90;99.90
20759;DHT22;10539;53.686;9.158;2022-11-20T10:30:14;4.90;99.90
20759;DHT22;10539;53.686;9.158;2022-11-20T10:32:43;4.80;99.90
20759;DHT22;10539;53.686;9.158;2022-11-20T10:35:16;4.70;99.90
20759;DHT22;10539;53.686;9.158;2022-11-20T10:37:45;4.60;99.90
20759;DHT22;10539;53.686;9.158;2022-11-20T10:42:56;4.50;99.90
20759;DHT22;10539;53.686;9.158;2022-11-20T10:50:43;4.30;99.90
20759;DHT22;10539;53.686;9.158;2022-11-20T10:57:10;4.40;99.90
20759;DHT22;10539;53.686;9.158;2022-11-20T11:01:45;4.50;99.90
20759;DHT22;10539;53.686;9.158;2022-11-20T11:04:38;4.40;99.90
20759;DHT22;10539;53.686;9.158;2022-11-20T11:07:12;4.50;99.90
20759;DHT22;10539;53.686;9.158;2022-11-20T11:09:43;4.50;99.90
20759;DHT22;10539;53.686;9.158;2022-11-20T11:12:10;4.60;99.90
20759;DHT22;10539;53.686;9.158;2022-11-20T11:14:48;4.60;99.90
20759;DHT22;10539;53.686;9.158;2022-11-20T11:17:30;4.70;99.90
20759;DHT22;10539;53.686;9.158;2022-11-20T11:22:47;4.70;99.90
20759;DHT22;10539;53.686;9.158;2022-11-20T11:25:34;4.50;99.90
20759;DHT22;10539;53.686;9.158;2022-11-20T11:28:24;4.50;99.90
20759;DHT22;10539;53.686;9.158;2022-11-20T11:30:51;4.50;99.90
20759;DHT22;10539;53.686;9.158;2022-11-20T11:33:25;4.50;99.90
20759;DHT22;10539;53.686;9.158;2022-11-20T11:35:55;4.50;99.90
20759;DHT22;10539;53.686;9.158;2022-11-20T11:38:39;4.50;99.90
20759;DHT22;10539;53.686;9.158;2022-11-20T11:41:07;4.60;99.90
20759;DHT22;10539;53.686;9.158;2022-11-20T11:43:34;4.60;99.90
20759;DHT22;10539;53.686;9.158;2022-11-20T11:46:29;4.80;99.90
20759;DHT22;10539;53.686;9.158;2022-11-20T11:49:08;4.80;99.90
20759;DHT22;10539;53.686;9.158;2022-11-20T11:52:16;4.70;99.90
20759;DHT22;10539;53.686;9.158;2022-11-20T11:54:50;4.60;99.90
20759;DHT22;10539;53.686;9.158;2022-11-20T12:05:20;4.60;99.90
20759;DHT22;10539;53.686;9.158;2022-11-20T12:07:49;4.60;99.90
20759;DHT22;10539;53.686;9.158;2022-11-20T12:15:59;4.80;99.90
20759;DHT22;10539;53.686;9.158;2022-11-20T12:18:25;4.80;99.90
20759;DHT22;10539;53.686;9.158;2022-11-20T12:21:43;4.80;99.90
20759;DHT22;10539;53.686;9.158;2022-11-20T12:40:27;4.60;99.90
20759;DHT22;10539;53.686;9.158;2022-11-20T12:48:41;4.70;99.90
20759;DHT22;10539;53.686;9.158;2022-11-20T12:54:14;5.00;99.90
20759;DHT22;10539;53.686;9.158;2022-11-20T12:57:09;5.10;99.90
20759;DHT22;10539;53.686;9.158;2022-11-20T13:00:17;5.30;99.90
20759;DHT22;10539;53.686;9.158;2022-11-20T13:08:18;5.10;99.90
20759;DHT22;10539;53.686;9.158;2022-11-20T13:10:51;5.10;99.90
20759;DHT22;10539;53.686;9.158;2022-11-20T13:13:25;5.00;99.90
20759;DHT22;10539;53.686;9.158;2022-11-20T13:16:19;5.00;99.90
20759;DHT22;10539;53.686;9.158;2022-11-20T13:18:45;5.00;99.90
20759;DHT22;10539;53.686;9.158;2022-11-20T13:21:20;5.00;99.90
20759;DHT22;10539;53.686;9.158;2022-11-20T13:23:46;5.10;99.90
20759;DHT22;10539;53.686;9.158;2022-11-20T13:26:18;5.10;99.90
20759;DHT22;10539;53.686;9.158;2022-11-20T13:28:46;5.00;99.90
20759;DHT22;10539;53.686;9.158;2022-11-20T13:31:31;5.00;99.90
20759;DHT22;10539;53.686;9.158;2022-11-20T13:33:58;5.00;99.90
20759;DHT22;10539;53.686;9.158;2022-11-20T13:36:27;4.90;99.90
20759;DHT22;10539;53.686;9.158;2022-11-20T13:38:55;4.90;99.90
20759;DHT22;10539;53.686;9.158;2022-11-20T13:44:44;4.90;99.90
20759;DHT22;10539;53.686;9.158;2022-11-20T13:46:46;4.70;99.90
20759;DHT22;10539;53.686;9.158;2022-11-20T13:49:34;4.60;99.90
20759;DHT22;10539;53.686;9.158;2022-11-20T13:55:05;4.70;99.90
20759;DHT22;10539;53.686;9.158;2022-11-20T14:00:22;4.80;99.90
20759;DHT22;10539;53.686;9.158;2022-11-20T14:05:56;4.90;99.90
20759;DHT22;10539;53.686;9.158;2022-11-20T14:08:39;4.90;99.90
20759;DHT22;10539;53.686;9.158;2022-11-20T14:11:23;5.00;99.90
20759;DHT22;10539;53.686;9.158;2022-11-20T14:13:59;5.00;99.90
20759;DHT22;10539;53.686;9.158;2022-11-20T14:16:27;4.90;99.90
20759;DHT22;10539;53.686;9.158;2022-11-20T14:18:54;4.90;99.90
20759;DHT22;10539;53.686;9.158;2022-11-20T14:21:28;4.80;99.90
20759;DHT22;10539;53.686;9.158;2022-11-20T14:24:09;4.80;99.90
20759;DHT22;10539;53.686;9.158;2022-11-20T14:26:40;4.70;99.90
20759;DHT22;10539;53.686;9.158;2022-11-20T14:29:23;4.70;99.90
20759;DHT22;10539;53.686;9.158;2022-11-20T14:31:53;4.70;99.90
20759;DHT22;10539;53.686;9.158;2022-11-20T14:34:25;4.70;99.90
20759;DHT22;10539;53.686;9.158;2022-11-20T14:36:57;4.80;99.90
20759;DHT22;10539;53.686;9.158;2022-11-20T14:39:36;4.90;99.90
20759;DHT22;10539;53.686;9.158;2022-11-20T14:42:12;4.90;99.90
20759;DHT22;10539;53.686;9.158;2022-11-20T14:44:39;4.90;99.90
20759;DHT22;10539;53.686;9.158;2022-11-20T14:47:08;4.90;99.90
20759;DHT22;10539;53.686;9.158;2022-11-20T14:49:37;4.90;99.90
20759;DHT22;10539;53.686;9.158;2022-11-20T14:52:15;4.90;99.90
20759;DHT22;10539;53.686;9.158;2022-11-20T14:54:52;4.90;99.90
20759;DHT22;10539;53.686;9.158;2022-11-20T15:00:03;5.00;99.90
20759;DHT22;10539;53.686;9.158;2022-11-20T15:02:30;4.90;99.90
20759;DHT22;10539;53.686;9.158;2022-11-20T15:05:01;4.90;99.90
20759;DHT22;10539;53.686;9.158;2022-11-20T15:07:35;4.90;99.90
20759;DHT22;10539;53.686;9.158;2022-11-20T15:10:09;4.90;99.90
20759;DHT22;10539;53.686;9.158;2022-11-20T15:12:56;4.80;99.90
20759;DHT22;10539;53.686;9.158;2022-11-20T15:15:33;4.80;99.90
20759;DHT22;10539;53.686;9.158;2022-11-20T15:18:01;4.70;99.90
20759;DHT22;10539;53.686;9.158;2022-11-20T15:20:31;4.60;99.90
20759;DHT22;10539;53.686;9.158;2022-11-20T15:22:58;4.60;99.90
20759;DHT22;10539;53.686;9.158;2022-11-20T15:25:24;4.50;99.90
20759;DHT22;10539;53.686;9.158;2022-11-20T15:27:55;4.50;99.90
20759;DHT22;10539;53.686;9.158;2022-11-20T15:30:22;4.50;99.90
20759;DHT22;10539;53.686;9.158;2022-11-20T15:32:48;4.50;99.90
20759;DHT22;10539;53.686;9.158;2022-11-20T15:35:14;4.50;99.90
20759;DHT22;10539;53.686;9.158;2022-11-20T15:37:40;4.50;99.90
20759;DHT22;10539;53.686;9.158;2022-11-20T15:40:07;4.50;99.90
20759;DHT22;10539;53.686;9.158;2022-11-20T15:42:34;4.50;99.90
20759;DHT22;10539;53.686;9.158;2022-11-20T15:45:00;4.40;99.90
20759;DHT22;10539;53.686;9.158;2022-11-20T15:47:32;4.30;99.90
20759;DHT22;10539;53.686;9.158;2022-11-20T15:49:59;4.30;99.90
20759;DHT22;10539;53.686;9.158;2022-11-20T15:52:25;4.10;99.90
20759;DHT22;10539;53.686;9.158;2022-11-20T15:54:51;4.00;99.90
20759;DHT22;10539;53.686;9.158;2022-11-20T15:57:16;3.80;99.90
20759;DHT22;10539;53.686;9.158;2022-11-20T15:59:42;3.70;99.90
20759;DHT22;10539;53.686;9.158;2022-11-20T16:02:12;3.70;99.90
20759;DHT22;10539;53.686;9.158;2022-11-20T16:04:38;3.70;99.90
20759;DHT22;10539;53.686;9.158;2022-11-20T16:07:04;3.70;99.90
20759;DHT22;10539;53.686;9.158;2022-11-20T16:09:29;3.70;99.90
20759;DHT22;10539;53.686;9.158;2022-11-20T16:11:56;3.70;99.90
20759;DHT22;10539;53.686;9.158;2022-11-20T16:14:23;3.80;99.90
20759;DHT22;10539;53.686;9.158;2022-11-20T16:17:08;3.80;99.90
20759;DHT22;10539;53.686;9.158;2022-11-20T16:19:33;3.90;99.90
20759;DHT22;10539;53.686;9.158;2022-11-20T16:21:59;3.90;99.90
20759;DHT22;10539;53.686;9.158;2022-11-20T16:24:28;3.90;99.90
20759;DHT22;10539;53.686;9.158;2022-11-20T16:26:54;3.90;99.90
20759;DHT22;10539;53.686;9.158;2022-11-20T16:29:21;3.90;99.90
20759;DHT22;10539;53.686;9.158;2022-11-20T16:31:46;4.00;99.90
20759;DHT22;10539;53.686;9.158;2022-11-20T16:34:12;4.00;99.90
20759;DHT22;10539;53.686;9.158;2022-11-20T16:36:42;4.10;99.90
20759;DHT22;10539;53.686;9.158;2022-11-20T16:39:09;4.10;99.90
20759;DHT22;10539;53.686;9.158;2022-11-20T16:41:35;4.10;99.90
20759;DHT22;10539;53.686;9.158;2022-11-20T16:44:07;4.20;99.90
20759;DHT22;10539;53.686;9.158;2022-11-20T16:46:33;4.20;99.90
20759;DHT22;10539;53.686;9.158;2022-11-20T16:49:02;4.20;99.90
20759;DHT22;10539;53.686;9.158;2022-11-20T16:51:30;4.30;99.90
20759;DHT22;10539;53.686;9.158;2022-11-20T16:53:56;4.20;99.90
20759;DHT22;10539;53.686;9.158;2022-11-20T16:56:26;4.20;99.90
20759;DHT22;10539;53.686;9.158;2022-11-20T16:58:54;4.20;99.90
20759;DHT22;10539;53.686;9.158;2022-11-20T17:01:22;4.20;99.90
20759;DHT22;10539;53.686;9.158;2022-11-20T17:04:01;4.10;99.90
20759;DHT22;10539;53.686;9.158;2022-11-20T17:06:30;4.00;99.90
20759;DHT22;10539;53.686;9.158;2022-11-20T17:08:56;4.00;99.90
20759;DHT22;10539;53.686;9.158;2022-11-20T17:11:24;3.90;99.90
20759;DHT22;10539;53.686;9.158;2022-11-20T17:13:50;3.90;99.90
20759;DHT22;10539;53.686;9.158;2022-11-20T17:16:18;3.90;99.90
20759;DHT22;10539;53.686;9.158;2022-11-20T17:18:44;4.00;99.90
20759;DHT22;10539;53.686;9.158;2022-11-20T17:21:11;4.00;99.90
20759;DHT22;10539;53.686;9.158;2022-11-20T17:23:40;4.00;99.90
20759;DHT22;10539;53.686;9.158;2022-11-20T17:26:17;4.00;99.90
20759;DHT22;10539;53.686;9.158;2022-11-20T17:28:45;3.90;99.90
20759;DHT22;10539;53.686;9.158;2022-11-20T17:31:15;3.90;99.90
20759;DHT22;10539;53.686;9.158;2022-11-20T17:33:43;3.80;99.90